^^
WestSenecaWeather Station Historical Data
Daily Summary for January 11, 2017 Units:  English    Metric   Both
Daily Weekly Monthly Yearly Custom
  High: Low: Average:
Temperature: 53.0 °F 36.0 °F 43.6 °F
Dew Point: 46.1 °F 23.0 °F 31.7 °F
Humidity: 87% 35% 65%
Wind Speed: 34.5mph 0.0mph 10.9mph
Wind Gust: 34.5mph - -
Wind- - South
Pressure: 30.16 in 29.58 in -
Precipitation: 0.09 in    
Historical Graphs
 
 
Tabular Data for January 11, 2017
Time Temperature Dew Point Pressure Wind Wind Speed Wind Gust Humidity Rainfall Rate (Hourly) solar
00:03 43.9 °F 40.3 °F 29.62 in SSW 28.8 mph 28.8 mph 87% 0.04 in 0.0 W/m2
00:08 43.8 °F 40.2 °F 29.61 in SE 15.0 mph 15.0 mph 87% 0.05 in 0.0 W/m2
00:13 43.9 °F 40.3 °F 29.60 in SE 19.6 mph 19.6 mph 87% 0.05 in 0.0 W/m2
00:18 44.2 °F 40.3 °F 29.59 in SE 20.7 mph 20.7 mph 86% 0.04 in 0.0 W/m2
00:23 44.5 °F 40.6 °F 29.58 in SSE 19.6 mph 19.6 mph 86% 0.04 in 0.0 W/m2
00:28 44.6 °F 40.7 °F 29.59 in South 15.0 mph 15.0 mph 86% 0.04 in 0.0 W/m2
00:33 44.7 °F 40.8 °F 29.59 in SSE 17.3 mph 17.3 mph 86% 0.03 in 0.0 W/m2
00:38 44.6 °F 40.7 °F 29.59 in South 19.6 mph 19.6 mph 86% 0.03 in 0.0 W/m2
00:43 44.7 °F 40.5 °F 29.59 in SSE 18.4 mph 18.4 mph 85% 0.02 in 0.0 W/m2
00:48 44.8 °F 40.6 °F 29.59 in SE 19.6 mph 19.6 mph 85% 0.02 in 0.0 W/m2
00:53 45.0 °F 40.5 °F 29.59 in SE 25.3 mph 25.3 mph 84% 0.02 in 0.0 W/m2
00:58 45.2 °F 40.7 °F 29.59 in South 21.9 mph 21.9 mph 84% 0.01 in 0.0 W/m2
01:03 45.3 °F 40.7 °F 29.59 in SE 23.0 mph 23.0 mph 84% 0.01 in 0.0 W/m2
01:08 45.5 °F 40.9 °F 29.59 in SSE 20.7 mph 20.7 mph 84% 0.00 in 0.0 W/m2
01:13 45.6 °F 41.0 °F 29.60 in SSE 20.7 mph 20.7 mph 84% 0.00 in 0.0 W/m2
01:18 45.4 °F 41.5 °F 29.63 in South 16.1 mph 16.1 mph 86% 0.02 in 0.0 W/m2
01:23 45.0 °F 41.1 °F 29.67 in SSW 29.9 mph 29.9 mph 86% 0.04 in 0.0 W/m2
01:28 43.4 °F 39.5 °F 29.68 in South 19.0 mph 19.0 mph 86% 0.04 in 0.0 W/m2
01:33 42.1 °F 38.5 °F 29.69 in SW 19.6 mph 19.6 mph 87% 0.04 in 0.0 W/m2
01:38 41.4 °F 37.8 °F 29.70 in SW 26.0 mph 26.0 mph 87% 0.04 in 0.0 W/m2
01:43 41.2 °F 37.0 °F 29.71 in SSW 24.2 mph 24.2 mph 85% 0.04 in 0.0 W/m2
01:48 40.7 °F 36.2 °F 29.72 in SSE 19.6 mph 19.6 mph 84% 0.04 in 0.0 W/m2
01:53 40.4 °F 35.9 °F 29.73 in South 27.6 mph 27.6 mph 84% 0.04 in 0.0 W/m2
01:58 40.1 °F 35.7 °F 29.74 in SSW 19.6 mph 19.6 mph 84% 0.04 in 0.0 W/m2
02:03 39.7 °F 35.3 °F 29.76 in South 34.5 mph 34.5 mph 84% 0.04 in 0.0 W/m2
02:08 39.4 °F 35.0 °F 29.76 in WSW 27.6 mph 27.6 mph 84% 0.04 in 0.0 W/m2
02:13 39.4 °F 34.7 °F 29.77 in South 26.5 mph 26.5 mph 83% 0.04 in 0.0 W/m2
02:18 39.3 °F 34.6 °F 29.79 in SSW 22.0 mph 22.0 mph 83% 0.02 in 0.0 W/m2
02:23 39.0 °F 34.3 °F 29.79 in SSW 12.7 mph 12.7 mph 83% 0.00 in 0.0 W/m2
02:28 38.9 °F 34.2 °F 29.80 in SSW 24.2 mph 24.2 mph 83% 0.00 in 0.0 W/m2
02:33 38.6 °F 34.2 °F 29.80 in West 19.6 mph 19.6 mph 84% 0.00 in 0.0 W/m2
02:38 38.4 °F 34.0 °F 29.81 in SSE 15.0 mph 15.0 mph 84% 0.00 in 0.0 W/m2
02:43 38.3 °F 33.9 °F 29.82 in SW 17.3 mph 17.3 mph 84% 0.00 in 0.0 W/m2
02:48 38.2 °F 33.5 °F 29.82 in WSW 15.0 mph 15.0 mph 83% 0.00 in 0.0 W/m2
02:53 38.1 °F 33.7 °F 29.83 in South 24.2 mph 24.2 mph 84% 0.00 in 0.0 W/m2
02:58 38.0 °F 33.6 °F 29.84 in South 18.4 mph 18.4 mph 84% 0.00 in 0.0 W/m2
03:03 37.8 °F 33.4 °F 29.85 in West 13.8 mph 13.8 mph 84% 0.00 in 0.0 W/m2
03:08 37.8 °F 33.1 °F 29.85 in WSW 18.4 mph 18.4 mph 83% 0.00 in 0.0 W/m2
03:13 37.8 °F 33.4 °F 29.86 in SSE 20.7 mph 20.7 mph 84% 0.00 in 0.0 W/m2
03:18 37.9 °F 33.5 °F 29.87 in SSE 19.6 mph 19.6 mph 84% 0.00 in 0.0 W/m2
03:23 37.9 °F 33.5 °F 29.88 in SSW 15.0 mph 15.0 mph 84% 0.00 in 0.0 W/m2
03:28 37.7 °F 33.6 °F 29.89 in South 16.1 mph 16.1 mph 85% 0.00 in 0.0 W/m2
03:33 37.7 °F 33.6 °F 29.89 in WSW 23.0 mph 23.0 mph 85% 0.00 in 0.0 W/m2
03:38 37.7 °F 33.3 °F 29.89 in SW 21.9 mph 21.9 mph 84% 0.00 in 0.0 W/m2
03:43 37.5 °F 33.1 °F 29.89 in WSW 13.8 mph 13.8 mph 84% 0.00 in 0.0 W/m2
03:48 37.4 °F 33.0 °F 29.89 in South 19.6 mph 19.6 mph 84% 0.00 in 0.0 W/m2
03:53 37.3 °F 32.9 °F 29.89 in NW 12.7 mph 12.7 mph 84% 0.00 in 0.0 W/m2
03:58 37.2 °F 32.8 °F 29.90 in SW 12.7 mph 12.7 mph 84% 0.00 in 0.0 W/m2
04:03 37.1 °F 32.7 °F 29.90 in South 16.1 mph 16.1 mph 84% 0.00 in 0.0 W/m2
04:08 37.1 °F 32.7 °F 29.90 in SW 18.4 mph 18.4 mph 84% 0.00 in 0.0 W/m2
04:13 37.0 °F 32.6 °F 29.90 in SSW 18.4 mph 18.4 mph 84% 0.00 in 0.0 W/m2
04:18 37.0 °F 32.6 °F 29.92 in South 11.5 mph 11.5 mph 84% 0.00 in 0.0 W/m2
04:24 37.0 °F 32.6 °F 29.92 in South 11.5 mph 11.5 mph 84% 0.00 in 0.0 W/m2
04:29 36.9 °F 32.5 °F 29.93 in WSW 19.6 mph 19.6 mph 84% 0.00 in 0.0 W/m2
04:34 36.9 °F 32.2 °F 29.93 in West 19.6 mph 19.6 mph 83% 0.00 in 0.0 W/m2
04:39 36.9 °F 32.2 °F 29.94 in WSW 13.8 mph 13.8 mph 83% 0.00 in 0.0 W/m2
04:44 36.9 °F 32.2 °F 29.94 in WSW 19.6 mph 19.6 mph 83% 0.00 in 0.0 W/m2
04:49 36.8 °F 32.1 °F 29.95 in WSW 17.3 mph 17.3 mph 83% 0.00 in 0.0 W/m2
04:54 36.8 °F 31.8 °F 29.96 in SSE 13.8 mph 13.8 mph 82% 0.00 in 0.0 W/m2
04:59 36.7 °F 31.7 °F 29.96 in South 16.1 mph 16.1 mph 82% 0.00 in 0.0 W/m2
05:04 36.6 °F 31.6 °F 29.96 in South 21.9 mph 21.9 mph 82% 0.00 in 0.0 W/m2
05:09 36.6 °F 31.6 °F 29.97 in SW 19.6 mph 19.6 mph 82% 0.00 in 0.0 W/m2
05:14 36.5 °F 31.5 °F 29.97 in SSE 16.0 mph 16.0 mph 82% 0.00 in 0.0 W/m2
05:19 36.4 °F 31.4 °F 29.97 in SSW 10.4 mph 11.0 mph 82% 0.00 in 0.0 W/m2
05:24 36.4 °F 31.1 °F 29.98 in SSW 19.6 mph 19.6 mph 81% 0.00 in 0.0 W/m2
05:29 36.4 °F 31.4 °F 29.99 in SSW 15.0 mph 15.0 mph 82% 0.00 in 0.0 W/m2
05:34 36.3 °F 31.6 °F 30.00 in SSE 11.5 mph 11.5 mph 83% 0.00 in 0.0 W/m2
05:39 36.3 °F 31.6 °F 30.00 in SW 20.7 mph 20.7 mph 83% 0.00 in 0.0 W/m2
05:44 36.3 °F 31.3 °F 30.00 in SSW 15.0 mph 15.0 mph 82% 0.00 in 0.0 W/m2
05:49 36.4 °F 31.4 °F 30.01 in SSE 16.1 mph 16.1 mph 82% 0.00 in 0.0 W/m2
05:54 36.3 °F 31.3 °F 30.01 in South 15.0 mph 15.0 mph 82% 0.00 in 0.0 W/m2
05:59 36.2 °F 31.2 °F 30.01 in SSW 20.7 mph 20.7 mph 82% 0.00 in 0.0 W/m2
06:04 36.2 °F 30.9 °F 30.02 in SW 15.0 mph 15.0 mph 81% 0.00 in 0.0 W/m2
06:09 36.1 °F 31.1 °F 30.02 in West 12.7 mph 12.7 mph 82% 0.00 in 0.0 W/m2
06:14 36.2 °F 30.9 °F 30.02 in WSW 19.6 mph 19.6 mph 81% 0.00 in 0.0 W/m2
06:19 36.3 °F 30.7 °F 30.03 in SW 18.4 mph 18.4 mph 80% 0.00 in 0.0 W/m2
06:24 36.2 °F 30.6 °F 30.03 in WSW 18.4 mph 18.4 mph 80% 0.00 in 0.0 W/m2
06:29 36.1 °F 30.5 °F 30.03 in SSW 12.7 mph 12.7 mph 80% 0.00 in 0.0 W/m2
06:34 36.1 °F 30.5 °F 30.03 in West 18.4 mph 18.4 mph 80% 0.00 in 0.0 W/m2
06:39 36.1 °F 30.5 °F 30.03 in SW 9.2 mph 9.2 mph 80% 0.00 in 0.0 W/m2
06:44 36.2 °F 30.3 °F 30.03 in SSW 11.5 mph 11.5 mph 79% 0.00 in 0.0 W/m2
06:49 36.3 °F 30.1 °F 30.04 in SSW 21.9 mph 21.9 mph 78% 0.00 in 0.0 W/m2
06:54 36.3 °F 29.8 °F 30.04 in SSE 15.0 mph 15.0 mph 77% 0.00 in 0.0 W/m2
06:59 36.2 °F 29.7 °F 30.06 in WSW 9.2 mph 9.2 mph 77% 0.00 in 0.0 W/m2
07:04 36.1 °F 29.9 °F 30.06 in SSW 11.5 mph 11.5 mph 78% 0.00 in 0.0 W/m2
07:09 36.0 °F 29.8 °F 30.07 in South 11.5 mph 11.5 mph 78% 0.00 in 0.0 W/m2
07:14 36.1 °F 29.9 °F 30.07 in SW 12.7 mph 12.7 mph 78% 0.00 in 0.0 W/m2
07:19 36.0 °F 29.8 °F 30.07 in SSW 11.5 mph 11.5 mph 78% 0.00 in 0.0 W/m2
07:24 36.0 °F 29.8 °F 30.08 in South 14.0 mph 14.0 mph 78% 0.00 in 0.0 W/m2
07:29 36.1 °F 29.9 °F 30.08 in WSW 8.1 mph 8.1 mph 78% 0.00 in 0.0 W/m2
07:34 36.1 °F 29.9 °F 30.09 in WSW 10.4 mph 10.4 mph 78% 0.00 in 0.0 W/m2
07:39 36.1 °F 29.9 °F 30.09 in SSW 9.2 mph 9.2 mph 78% 0.00 in 0.0 W/m2
07:44 36.2 °F 29.7 °F 30.10 in South 12.7 mph 12.7 mph 77% 0.00 in 0.0 W/m2
07:49 36.2 °F 29.0 °F 30.10 in SW 13.8 mph 13.8 mph 75% 0.00 in 0.0 W/m2
07:54 36.3 °F 29.1 °F 30.11 in SW 15.0 mph 15.0 mph 75% 0.00 in 0.0 W/m2
07:59 36.4 °F 28.9 °F 30.11 in South 9.0 mph 9.0 mph 74% 0.00 in 0.0 W/m2
08:04 36.4 °F 28.9 °F 30.11 in South 18.4 mph 18.4 mph 74% 0.00 in 0.0 W/m2
08:09 36.7 °F 28.9 °F 30.11 in SSE 9.2 mph 9.2 mph 73% 0.00 in 0.0 W/m2
08:14 36.7 °F 28.9 °F 30.12 in West 11.5 mph 11.5 mph 73% 0.00 in 0.0 W/m2
08:19 36.7 °F 28.9 °F 30.12 in SSW 6.9 mph 6.9 mph 73% 0.00 in 0.0 W/m2
08:24 36.8 °F 29.0 °F 30.13 in SSE 9.2 mph 9.2 mph 73% 0.00 in 0.0 W/m2
08:29 36.9 °F 28.7 °F 30.13 in SSW 12.7 mph 12.7 mph 72% 0.00 in 0.0 W/m2
08:34 37.0 °F 28.8 °F 30.13 in SSW 6.9 mph 6.9 mph 72% 0.00 in 0.0 W/m2
08:39 37.1 °F 28.6 °F 30.14 in NW 6.9 mph 6.9 mph 71% 0.00 in 0.0 W/m2
08:44 37.3 °F 28.4 °F 30.14 in SSE 11.5 mph 11.5 mph 70% 0.00 in 0.0 W/m2
08:49 37.5 °F 28.6 °F 30.14 in SSW 10.4 mph 10.4 mph 70% 0.00 in 0.0 W/m2
08:54 37.7 °F 28.1 °F 30.14 in WSW 10.4 mph 10.4 mph 68% 0.00 in 0.0 W/m2
08:59 37.9 °F 27.9 °F 30.15 in SSW 11.5 mph 11.5 mph 67% 0.00 in 0.0 W/m2
09:04 38.1 °F 27.7 °F 30.15 in South 9.2 mph 9.2 mph 66% 0.00 in 0.0 W/m2
09:09 38.3 °F 27.9 °F 30.15 in SW 9.2 mph 9.2 mph 66% 0.00 in 0.0 W/m2
09:14 38.4 °F 27.7 °F 30.15 in West 11.5 mph 11.5 mph 65% 0.00 in 0.0 W/m2
09:19 38.7 °F 27.6 °F 30.15 in SW 8.1 mph 8.1 mph 64% 0.00 in 0.0 W/m2
09:24 38.9 °F 27.0 °F 30.15 in WSW 9.0 mph 9.0 mph 62% 0.00 in 0.0 W/m2
09:29 39.3 °F 27.0 °F 30.15 in West 10.4 mph 10.4 mph 61% 0.00 in 0.0 W/m2
09:34 39.5 °F 26.8 °F 30.15 in SSW 9.2 mph 9.2 mph 60% 0.00 in 0.0 W/m2
09:39 39.8 °F 26.6 °F 30.16 in South 9.2 mph 9.2 mph 59% 0.00 in 0.0 W/m2
09:44 40.1 °F 26.9 °F 30.16 in SSW 8.1 mph 8.1 mph 59% 0.00 in 0.0 W/m2
09:49 40.4 °F 26.8 °F 30.16 in South 11.5 mph 11.5 mph 58% 0.00 in 0.0 W/m2
09:54 40.4 °F 26.8 °F 30.16 in South 12.7 mph 12.7 mph 58% 0.00 in 0.0 W/m2
09:59 40.5 °F 26.4 °F 30.15 in South 17.3 mph 17.3 mph 57% 0.00 in 0.0 W/m2
10:04 40.6 °F 26.5 °F 30.15 in SSE 11.5 mph 11.5 mph 57% 0.00 in 0.0 W/m2
10:09 40.9 °F 26.8 °F 30.16 in SSW 10.4 mph 10.4 mph 57% 0.00 in 0.0 W/m2
10:14 41.3 °F 26.8 °F 30.16 in SW 11.5 mph 11.5 mph 56% 0.00 in 0.0 W/m2
10:19 41.5 °F 26.5 °F 30.15 in South 12.7 mph 12.7 mph 55% 0.00 in 0.0 W/m2
10:24 41.8 °F 26.4 °F 30.15 in SW 13.8 mph 13.8 mph 54% 0.00 in 0.0 W/m2
10:29 42.0 °F 26.5 °F 30.15 in South 13.8 mph 13.8 mph 54% 0.00 in 0.0 W/m2
10:35 42.1 °F 26.6 °F 30.16 in SW 10.4 mph 10.4 mph 54% 0.00 in 0.0 W/m2
10:40 42.3 °F 26.8 °F 30.15 in SE 11.5 mph 11.5 mph 54% 0.00 in 0.0 W/m2
10:45 42.2 °F 26.3 °F 30.15 in SW 6.9 mph 6.9 mph 53% 0.00 in 0.0 W/m2
10:50 42.5 °F 27.5 °F 30.15 in SSE 5.8 mph 5.8 mph 55% 0.00 in 0.0 W/m2
10:55 42.8 °F 27.3 °F 30.16 in South 5.8 mph 5.8 mph 54% 0.00 in 0.0 W/m2
11:00 42.7 °F 27.2 °F 30.15 in South 10.4 mph 10.4 mph 54% 0.00 in 0.0 W/m2
11:05 42.8 °F 28.2 °F 30.15 in South 4.6 mph 4.6 mph 56% 0.00 in 0.0 W/m2
11:10 43.0 °F 27.9 °F 30.15 in South 5.0 mph 7.0 mph 55% 0.00 in 0.0 W/m2
11:15 42.8 °F 27.7 °F 30.14 in South 5.0 mph 13.0 mph 55% 0.00 in 0.0 W/m2
11:20 42.5 °F 27.0 °F 30.14 in SSW 7.0 mph 17.0 mph 54% 0.00 in 0.0 W/m2
11:25 42.4 °F 27.4 °F 30.13 in SSE 8.1 mph 8.1 mph 55% 0.00 in 0.0 W/m2
11:30 42.4 °F 28.2 °F 30.13 in South 3.0 mph 10.0 mph 57% 0.00 in 0.0 W/m2
11:35 42.5 °F 27.9 °F 30.13 in South 6.0 mph 12.0 mph 56% 0.00 in 0.0 W/m2
11:40 42.5 °F 28.8 °F 30.13 in SSE 8.1 mph 8.1 mph 58% 0.00 in 0.0 W/m2
11:45 42.8 °F 28.6 °F 30.13 in SSW 6.9 mph 6.9 mph 57% 0.00 in 0.0 W/m2
11:50 43.1 °F 28.9 °F 30.13 in South 7.0 mph 7.0 mph 57% 0.00 in 0.0 W/m2
11:55 43.4 °F 28.7 °F 30.12 in South 9.2 mph 9.2 mph 56% 0.00 in 0.0 W/m2
12:00 43.4 °F 28.3 °F 30.11 in SSW 11.5 mph 11.5 mph 55% 0.00 in 0.0 W/m2
12:05 43.7 °F 29.0 °F 30.10 in SSE 7.0 mph 7.0 mph 56% 0.00 in 0.0 W/m2
12:10 44.0 °F 28.4 °F 30.10 in South 7.0 mph 14.0 mph 54% 0.00 in 0.0 W/m2
12:15 44.3 °F 27.8 °F 30.09 in SSE 6.0 mph 12.0 mph 52% 0.00 in 0.0 W/m2
12:20 44.9 °F 28.4 °F 30.10 in South 7.0 mph 12.0 mph 52% 0.00 in 0.0 W/m2
12:25 45.0 °F 27.5 °F 30.09 in South 6.0 mph 16.0 mph 50% 0.00 in 0.0 W/m2
12:30 45.2 °F 27.6 °F 30.08 in SSE 9.2 mph 9.2 mph 50% 0.00 in 0.0 W/m2
12:35 45.5 °F 26.9 °F 30.08 in SSW 9.2 mph 9.2 mph 48% 0.00 in 0.0 W/m2
12:40 45.9 °F 26.8 °F 30.08 in SSE 12.0 mph 12.0 mph 47% 0.00 in 0.0 W/m2
12:45 46.1 °F 26.5 °F 30.08 in South 10.0 mph 15.0 mph 46% 0.00 in 0.0 W/m2
12:50 46.2 °F 26.5 °F 30.08 in South 12.7 mph 12.7 mph 46% 0.00 in 0.0 W/m2
12:55 46.4 °F 25.6 °F 30.07 in SSE 15.0 mph 15.0 mph 44% 0.00 in 0.0 W/m2
13:00 46.8 °F 25.5 °F 30.06 in SSW 12.7 mph 12.7 mph 43% 0.00 in 0.0 W/m2
13:05 47.3 °F 25.3 °F 30.06 in SE 11.5 mph 11.5 mph 42% 0.00 in 0.0 W/m2
13:10 47.4 °F 24.9 °F 30.06 in SSW 12.7 mph 12.7 mph 41% 0.00 in 0.0 W/m2
13:15 47.5 °F 24.9 °F 30.05 in SSE 7.0 mph 13.0 mph 41% 0.00 in 0.0 W/m2
13:20 47.6 °F 25.6 °F 30.05 in SSE 9.2 mph 9.2 mph 42% 0.00 in 0.0 W/m2
13:25 47.9 °F 24.7 °F 30.05 in South 9.2 mph 9.2 mph 40% 0.00 in 0.0 W/m2
13:30 48.0 °F 25.4 °F 30.05 in SSW 7.0 mph 7.0 mph 41% 0.00 in 0.0 W/m2
13:35 48.1 °F 24.9 °F 30.04 in SE 9.0 mph 9.0 mph 40% 0.00 in 0.0 W/m2
13:40 48.2 °F 25.0 °F 30.04 in SSE 5.0 mph 16.0 mph 40% 0.00 in 0.0 W/m2
13:45 48.8 °F 24.9 °F 30.04 in South 6.0 mph 14.0 mph 39% 0.00 in 0.0 W/m2
13:50 49.0 °F 24.5 °F 30.04 in South 7.0 mph 14.0 mph 38% 0.00 in 0.0 W/m2
13:55 49.3 °F 24.7 °F 30.03 in South 10.0 mph 10.0 mph 38% 0.00 in 0.0 W/m2
14:00 49.2 °F 24.6 °F 30.03 in South 11.5 mph 11.5 mph 38% 0.00 in 0.0 W/m2
14:05 49.3 °F 24.1 °F 30.03 in SSE 7.0 mph 12.0 mph 37% 0.00 in 0.0 W/m2
14:10 49.5 °F 23.6 °F 30.02 in SW 12.7 mph 12.7 mph 36% 0.00 in 0.0 W/m2
14:15 49.6 °F 23.7 °F 30.01 in SSE 8.1 mph 8.1 mph 36% 0.00 in 0.0 W/m2
14:20 49.6 °F 23.7 °F 30.01 in SSE 7.0 mph 10.0 mph 36% 0.00 in 0.0 W/m2
14:25 49.6 °F 23.0 °F 30.01 in SSE 9.2 mph 9.2 mph 35% 0.00 in 0.0 W/m2
14:30 49.6 °F 23.7 °F 30.01 in SSE 9.2 mph 9.2 mph 36% 0.00 in 0.0 W/m2
14:35 49.6 °F 23.7 °F 30.01 in South 8.1 mph 8.1 mph 36% 0.00 in 0.0 W/m2
14:40 49.7 °F 23.8 °F 30.00 in SSE 11.5 mph 11.5 mph 36% 0.00 in 0.0 W/m2
14:45 49.8 °F 24.5 °F 30.00 in South 9.2 mph 9.2 mph 37% 0.00 in 0.0 W/m2
14:50 49.9 °F 24.0 °F 30.00 in SSW 8.1 mph 8.1 mph 36% 0.00 in 0.0 W/m2
14:55 50.0 °F 23.4 °F 30.00 in South 15.0 mph 15.0 mph 35% 0.00 in 0.0 W/m2
15:00 50.1 °F 24.2 °F 30.00 in South 11.5 mph 11.5 mph 36% 0.00 in 0.0 W/m2
15:05 50.1 °F 23.5 °F 29.99 in SW 11.5 mph 11.5 mph 35% 0.00 in 0.0 W/m2
15:10 50.1 °F 24.2 °F 29.99 in SSE 10.4 mph 10.4 mph 36% 0.00 in 0.0 W/m2
15:15 50.0 °F 24.1 °F 29.99 in SSE 8.1 mph 8.1 mph 36% 0.00 in 0.0 W/m2
15:20 49.9 °F 24.0 °F 29.99 in South 9.2 mph 9.2 mph 36% 0.00 in 0.0 W/m2
15:25 49.8 °F 23.9 °F 29.98 in SSE 10.4 mph 10.4 mph 36% 0.00 in 0.0 W/m2
15:30 49.7 °F 24.5 °F 29.98 in South 6.9 mph 6.9 mph 37% 0.00 in 0.0 W/m2
15:35 49.6 °F 24.4 °F 29.98 in SSE 6.9 mph 6.9 mph 37% 0.00 in 0.0 W/m2
15:40 49.5 °F 24.9 °F 29.99 in SSW 5.8 mph 5.8 mph 38% 0.00 in 0.0 W/m2
15:45 49.4 °F 24.8 °F 29.99 in SSW 9.2 mph 9.2 mph 38% 0.00 in 0.0 W/m2
15:50 49.4 °F 25.4 °F 29.99 in SSE 3.5 mph 3.5 mph 39% 0.00 in 0.0 W/m2
15:55 49.3 °F 26.0 °F 29.99 in South 8.1 mph 8.1 mph 40% 0.00 in 0.0 W/m2
16:00 49.2 °F 25.9 °F 30.00 in SSW 5.8 mph 5.8 mph 40% 0.00 in 0.0 W/m2
16:05 49.2 °F 26.5 °F 29.99 in SW 3.5 mph 3.5 mph 41% 0.00 in 0.0 W/m2
16:10 49.3 °F 26.0 °F 29.99 in SSW 8.1 mph 8.1 mph 40% 0.00 in 0.0 W/m2
16:15 49.3 °F 26.6 °F 29.99 in South 3.5 mph 3.5 mph 41% 0.00 in 0.0 W/m2
16:20 49.1 °F 27.0 °F 29.99 in SW 4.6 mph 4.6 mph 42% 0.00 in 0.0 W/m2
16:25 49.0 °F 27.5 °F 29.98 in WSW 3.5 mph 3.5 mph 43% 0.00 in 0.0 W/m2
16:30 48.8 °F 27.3 °F 29.98 in SSW 2.3 mph 2.3 mph 43% 0.00 in 0.0 W/m2
16:35 48.7 °F 27.2 °F 29.97 in SSW 1.2 mph   43% 0.00 in 0.0 W/m2
16:40 48.5 °F 27.6 °F 29.97 in Calm     44% 0.00 in 0.0 W/m2
16:45 48.3 °F 27.4 °F 29.97 in Calm     44% 0.00 in 0.0 W/m2
16:50 48.1 °F 27.7 °F 29.96 in Calm     45% 0.00 in 0.0 W/m2
16:55 47.9 °F 27.6 °F 29.96 in Calm     45% 0.00 in 0.0 W/m2
17:00 47.7 °F 27.9 °F 29.95 in Calm     46% 0.00 in 0.0 W/m2
17:05 47.3 °F 28.1 °F 29.95 in Calm     47% 0.00 in 0.0 W/m2
17:10 46.9 °F 28.2 °F 29.95 in Calm     48% 0.00 in 0.0 W/m2
17:15 46.4 °F 28.3 °F 29.96 in Calm     49% 0.00 in 0.0 W/m2
17:20 45.7 °F 28.6 °F 29.95 in Calm     51% 0.00 in 0.0 W/m2
17:25 45.3 °F 28.7 °F 29.95 in Calm     52% 0.00 in 0.0 W/m2
17:30 44.6 °F 29.4 °F 29.95 in Calm     55% 0.00 in 0.0 W/m2
17:35 44.0 °F 29.3 °F 29.95 in Calm     56% 0.00 in 0.0 W/m2
17:40 43.7 °F 29.0 °F 29.94 in Calm     56% 0.00 in 0.0 W/m2
17:45 43.6 °F 29.8 °F 29.93 in Calm     58% 0.00 in 0.0 W/m2
17:50 43.4 °F 29.2 °F 29.93 in Calm     57% 0.00 in 0.0 W/m2
17:55 43.3 °F 29.9 °F 29.93 in Calm     59% 0.00 in 0.0 W/m2
18:00 43.2 °F 29.8 °F 29.93 in Calm     59% 0.00 in 0.0 W/m2
18:01 43.2 °F 29.4 °F 29.93 in Calm     58% 0.00 in 0.0 W/m2
18:06 43.3 °F 29.9 °F 29.93 in Calm     59% 0.00 in 0.0 W/m2
18:11 43.2 °F 29.8 °F 29.93 in Calm     59% 0.00 in 0.0 W/m2
18:16 43.1 °F 30.6 °F 29.93 in Calm     61% 0.00 in 0.0 W/m2
18:21 42.9 °F 30.8 °F 29.93 in Calm     62% 0.00 in 0.0 W/m2
18:26 42.6 °F 30.5 °F 29.93 in Calm     62% 0.00 in 0.0 W/m2
18:31 42.5 °F 30.4 °F 29.92 in Calm     62% 0.00 in 0.0 W/m2
18:36 42.4 °F 30.7 °F 29.93 in Calm     63% 0.00 in 0.0 W/m2
18:41 42.2 °F 30.5 °F 29.93 in Calm     63% 0.00 in 0.0 W/m2
18:46 42.0 °F 30.3 °F 29.93 in Calm     63% 0.00 in 0.0 W/m2
18:51 41.9 °F 30.6 °F 29.92 in Calm     64% 0.00 in 0.0 W/m2
18:56 41.8 °F 30.5 °F 29.92 in Calm     64% 0.00 in 0.0 W/m2
19:01 41.6 °F 30.3 °F 29.92 in Calm     64% 0.00 in 0.0 W/m2
19:06 41.6 °F 30.3 °F 29.93 in Calm     64% 0.00 in 0.0 W/m2
19:11 41.6 °F 30.7 °F 29.93 in Calm     65% 0.00 in 0.0 W/m2
19:16 41.5 °F 30.6 °F 29.92 in Calm     65% 0.00 in 0.0 W/m2
19:21 41.3 °F 31.2 °F 29.92 in SSW 2.3 mph 2.3 mph 67% 0.00 in 0.0 W/m2
19:26 41.0 °F 30.9 °F 29.92 in SSW 2.3 mph 2.3 mph 67% 0.00 in 0.0 W/m2
19:31 40.9 °F 30.8 °F 29.92 in Calm     67% 0.00 in 0.0 W/m2
19:36 40.6 °F 30.9 °F 29.92 in Calm     68% 0.00 in 0.0 W/m2
19:41 40.3 °F 30.6 °F 29.91 in SSW 1.2 mph 1.2 mph 68% 0.00 in 0.0 W/m2
19:46 40.6 °F 31.2 °F 29.91 in SSE 2.3 mph 2.3 mph 69% 0.00 in 0.0 W/m2
19:51 41.5 °F 31.7 °F 29.91 in SSE 3.5 mph 3.5 mph 68% 0.00 in 0.0 W/m2
20:01 46.9 °F 36.1 °F 29.90 in SSE 10.4 mph 10.4 mph 66% 0.00 in 0.0 W/m2
20:02 47.1 °F 36.3 °F 29.90 in SE 10.4 mph 10.4 mph 66% 0.00 in 0.0 W/m2
20:07 48.7 °F 36.7 °F 29.90 in SSE 11.5 mph 11.5 mph 63% 0.00 in 0.0 W/m2
20:12 49.5 °F 36.6 °F 29.90 in South 4.6 mph 4.6 mph 61% 0.00 in 0.0 W/m2
20:17 49.9 °F 37.0 °F 29.90 in South 3.5 mph 3.5 mph 61% 0.00 in 0.0 W/m2
20:22 50.1 °F 36.7 °F 29.90 in South 4.0 mph 4.0 mph 60% 0.00 in 0.0 W/m2
20:27 50.3 °F 36.9 °F 29.90 in SSE 5.8 mph 5.8 mph 60% 0.00 in 0.0 W/m2
20:32 50.3 °F 36.9 °F 29.88 in SSE 5.8 mph 5.8 mph 60% 0.00 in 0.0 W/m2
20:37 50.1 °F 36.7 °F 29.88 in SSW 3.5 mph 3.5 mph 60% 0.00 in 0.0 W/m2
20:42 50.0 °F 36.7 °F 29.88 in SSE 1.2 mph 1.2 mph 60% 0.00 in 0.0 W/m2
20:47 49.9 °F 36.6 °F 29.88 in SSE 1.2 mph 1.2 mph 60% 0.00 in 0.0 W/m2
20:52 49.7 °F 36.4 °F 29.86 in South 2.3 mph 2.3 mph 60% 0.00 in 0.0 W/m2
20:57 49.7 °F 36.8 °F 29.86 in SSE 5.8 mph 5.8 mph 61% 0.00 in 0.0 W/m2
21:02 49.8 °F 36.9 °F 29.86 in South 10.0 mph 10.0 mph 61% 0.00 in 0.0 W/m2
21:07 50.5 °F 37.1 °F 29.86 in SSE 6.9 mph 6.9 mph 60% 0.00 in 0.0 W/m2
21:12 50.7 °F 37.3 °F 29.85 in South 5.8 mph 5.8 mph 60% 0.00 in 0.0 W/m2
21:17 51.0 °F 37.6 °F 29.85 in South 8.1 mph 8.1 mph 60% 0.00 in 0.0 W/m2
21:22 51.2 °F 37.8 °F 29.85 in SSW 5.8 mph 5.8 mph 60% 0.00 in 0.0 W/m2
21:27 51.2 °F 37.8 °F 29.85 in South 5.8 mph 5.8 mph 60% 0.00 in 0.0 W/m2
21:32 51.3 °F 38.3 °F 29.84 in SSW 11.5 mph 11.5 mph 61% 0.00 in 0.0 W/m2
21:37 51.4 °F 38.4 °F 29.84 in SSE 4.0 mph 4.0 mph 61% 0.00 in 0.0 W/m2
21:42 51.3 °F 38.3 °F 29.84 in SE 6.9 mph 6.9 mph 61% 0.00 in 0.0 W/m2
21:47 51.2 °F 38.6 °F 29.83 in SE 8.1 mph 8.1 mph 62% 0.00 in 0.0 W/m2
21:52 51.3 °F 38.7 °F 29.82 in SSE 6.9 mph 6.9 mph 62% 0.00 in 0.0 W/m2
21:57 51.3 °F 39.1 °F 29.81 in SSE 8.1 mph 8.1 mph 63% 0.00 in 0.0 W/m2
22:02 51.4 °F 39.2 °F 29.81 in SSE 9.2 mph 9.2 mph 63% 0.00 in 0.0 W/m2
22:07 51.5 °F 39.3 °F 29.80 in SSE 10.4 mph 10.4 mph 63% 0.00 in 0.0 W/m2
22:12 51.6 °F 40.2 °F 29.80 in SSE 12.0 mph 12.0 mph 65% 0.00 in 0.0 W/m2
22:17 52.1 °F 40.7 °F 29.80 in SSE 11.5 mph 11.5 mph 65% 0.00 in 0.0 W/m2
22:22 52.4 °F 41.4 °F 29.79 in ESE 10.0 mph 10.0 mph 66% 0.00 in 0.0 W/m2
22:27 52.8 °F 42.1 °F 29.79 in SE 11.5 mph 11.5 mph 67% 0.00 in 0.0 W/m2
22:32 52.9 °F 42.6 °F 29.79 in SE 17.3 mph 17.3 mph 68% 0.00 in 0.0 W/m2
22:37 53.0 °F 43.1 °F 29.78 in SSE 19.6 mph 19.6 mph 69% 0.00 in 0.0 W/m2
22:42 53.0 °F 43.1 °F 29.78 in SE 19.6 mph 19.6 mph 69% 0.00 in 0.0 W/m2
22:47 52.7 °F 43.2 °F 29.78 in SSW 15.0 mph 15.0 mph 70% 0.00 in 0.0 W/m2
22:52 52.6 °F 43.5 °F 29.78 in SSE 20.7 mph 20.7 mph 71% 0.00 in 0.0 W/m2
22:57 52.3 °F 43.5 °F 29.77 in SE 18.4 mph 18.4 mph 72% 0.00 in 0.0 W/m2
23:02 52.1 °F 44.1 °F 29.77 in SSE 19.6 mph 19.6 mph 74% 0.00 in 0.0 W/m2
23:07 51.9 °F 44.6 °F 29.78 in SSE 16.1 mph 16.1 mph 76% 0.00 in 0.0 W/m2
23:12 51.6 °F 44.6 °F 29.77 in South 16.1 mph 16.1 mph 77% 0.00 in 0.0 W/m2
23:17 51.5 °F 44.5 °F 29.77 in South 19.6 mph 19.6 mph 77% 0.00 in 0.0 W/m2
23:22 51.6 °F 45.0 °F 29.78 in SSE 15.0 mph 15.0 mph 78% 0.00 in 0.0 W/m2
23:27 51.5 °F 45.2 °F 29.79 in SSE 22.0 mph 22.0 mph 79% 0.00 in 0.0 W/m2
23:32 50.9 °F 45.6 °F 29.78 in South 23.0 mph 23.0 mph 82% 0.02 in 0.0 W/m2
23:37 50.4 °F 45.7 °F 29.77 in SE 16.1 mph 16.1 mph 84% 0.03 in 0.0 W/m2
23:42 50.1 °F 45.8 °F 29.77 in SE 13.8 mph 13.8 mph 85% 0.03 in 0.0 W/m2
23:47 50.0 °F 46.0 °F 29.76 in SSE 12.7 mph 12.7 mph 86% 0.04 in 0.0 W/m2
23:52 50.1 °F 46.1 °F 29.76 in SE 12.0 mph 12.0 mph 86% 0.04 in 0.0 W/m2
23:57 50.4 °F 46.1 °F 29.76 in SSE 15.0 mph 15.0 mph 85% 0.04 in 0.0 W/m2
west seneca weather
Compliments of Weather Underground - 2 mb